createdAt,value
2023-02-08T00:01:31.092Z,60464.31
2023-02-08T00:03:59.858Z,60453.66
2023-02-08T00:06:28.475Z,60456.19
2023-02-08T00:08:57.242Z,60458.84
2023-02-08T00:11:33.425Z,60455.66
2023-02-08T00:14:02.320Z,60464.56
2023-02-08T00:16:32.112Z,60455.13
2023-02-08T00:19:00.643Z,60438.13
2023-02-08T00:21:29.118Z,60436.00
2023-02-08T00:23:58.081Z,60447.16
2023-02-08T00:26:27.121Z,60438.53
2023-02-08T00:28:55.975Z,60437.06
2023-02-08T00:31:24.923Z,60433.47
2023-02-08T00:33:54.854Z,60445.28
2023-02-08T00:36:23.643Z,60445.56
2023-02-08T00:38:52.213Z,60436.00
2023-02-08T00:49:33.885Z,60406.25
2023-02-08T00:52:05.142Z,60402.00
2023-02-08T00:54:33.847Z,60413.03
2023-02-08T00:57:02.579Z,60409.97
2023-02-08T00:59:37.306Z,60402.94
2023-02-08T01:02:06.266Z,60424.72
2023-02-08T01:04:35.127Z,60414.75
2023-02-08T01:07:05.711Z,60429.09
2023-02-08T01:09:35.383Z,60425.25
2023-02-08T01:12:05.511Z,60426.84
2023-02-08T01:14:47.036Z,60423.66
2023-02-08T01:17:16.153Z,60390.72
2023-02-08T01:19:44.963Z,60407.44
2023-02-08T01:22:15.200Z,60389.94
2023-02-08T01:24:44.008Z,60401.34
2023-02-08T01:27:12.502Z,60393.09
2023-02-08T01:29:41.239Z,60402.69
2023-02-08T01:32:09.693Z,60398.81
2023-02-08T01:34:38.492Z,60395.91
2023-02-08T01:37:07.001Z,60405.88
2023-02-08T01:39:37.087Z,60398.41
2023-02-08T01:42:06.177Z,60407.44
2023-02-08T01:45:26.645Z,60402.53
2023-02-08T01:48:03.065Z,60402.94
2023-02-08T01:50:38.166Z,60400.94
2023-02-08T01:53:07.206Z,60396.56
2023-02-08T01:55:41.434Z,60396.72
2023-02-08T01:58:13.555Z,60385.16
2023-02-08T02:00:42.417Z,60398.28
2023-02-08T02:03:15.281Z,60391.00
2023-02-08T02:05:47.228Z,60378.66
2023-02-08T02:08:15.835Z,60389.25
2023-02-08T02:10:46.141Z,60383.81
2023-02-08T02:13:21.509Z,60376.66
2023-02-08T02:15:51.489Z,60380.38
2023-02-08T02:18:27.218Z,60389.25
2023-02-08T02:21:22.411Z,60381.19
2023-02-08T02:24:31.470Z,60377.84
2023-02-08T02:27:24.344Z,60369.09
2023-02-08T02:34:01.826Z,60374.41
2023-02-08T02:36:45.974Z,60374.78
2023-02-08T02:39:25.313Z,60370.56
2023-02-08T02:42:21.448Z,60371.22
2023-02-08T02:45:08.133Z,60359.66
2023-02-08T02:47:48.254Z,60361.78
2023-02-08T02:50:25.526Z,60355.69
2023-02-08T02:53:01.905Z,60359.00
2023-02-08T02:55:35.366Z,60339.88
2023-02-08T02:58:05.085Z,60336.31
2023-02-08T03:00:34.994Z,60333.66
2023-02-08T03:03:03.567Z,60321.19
2023-02-08T03:05:33.416Z,60334.06
2023-02-08T03:08:23.654Z,60328.75
2023-02-08T03:11:16.196Z,60317.75
2023-02-08T03:14:09.790Z,60302.09
2023-02-08T03:17:01.468Z,60313.50
2023-02-08T03:19:38.210Z,60313.22
2023-02-08T03:22:16.414Z,60312.31
2023-02-08T03:24:54.413Z,60300.78
2023-02-08T03:27:32.887Z,60299.72
2023-02-08T03:30:05.145Z,60303.94
2023-02-08T03:32:42.663Z,60304.75
2023-02-08T03:35:16.991Z,60303.16
2023-02-08T03:37:52.988Z,60297.59
2023-02-08T03:40:28.512Z,60291.75
2023-02-08T03:43:01.982Z,60300.09
2023-02-08T03:45:34.674Z,60302.22
2023-02-08T03:48:08.202Z,60307.38
2023-02-08T03:50:40.942Z,60301.28
2023-02-08T03:53:12.576Z,60351.03
2023-02-08T03:55:43.670Z,60394.97
2023-02-08T03:58:19.734Z,60406.91
2023-02-08T04:00:56.361Z,60441.31
2023-02-08T04:03:28.376Z,60437.06
2023-02-08T04:05:57.498Z,60421.41
2023-02-08T04:08:27.770Z,60407.97
2023-02-08T04:10:56.549Z,60403.88
2023-02-08T04:13:25.005Z,60375.44
2023-02-08T04:15:53.573Z,60351.03
2023-02-08T04:18:21.996Z,60332.34
2023-02-08T04:20:50.577Z,60314.97
2023-02-08T04:23:19.049Z,60300.78
2023-02-08T04:25:48.989Z,60297.84
2023-02-08T04:28:17.506Z,60277.44
2023-02-08T04:30:45.949Z,60271.06
2023-02-08T04:33:15.019Z,60282.47
2023-02-08T04:35:44.119Z,60275.69
2023-02-08T04:38:12.699Z,60276.63
2023-02-08T04:40:41.509Z,60267.22
2023-02-08T04:43:11.476Z,60266.81
2023-02-08T04:45:39.851Z,60272.50
2023-02-08T04:48:08.472Z,60271.47
2023-02-08T04:50:36.968Z,60276.78
2023-02-08T04:53:06.522Z,60281.41
2023-02-08T04:55:35.312Z,60272.00
2023-02-08T04:58:04.086Z,60273.19
2023-02-08T05:00:34.058Z,60265.75
2023-02-08T05:03:02.492Z,60264.56
2023-02-08T05:05:30.957Z,60264.44
2023-02-08T05:07:59.589Z,60262.31
2023-02-08T05:10:28.527Z,60267.75
2023-02-08T05:12:57.255Z,60266.16
2023-02-08T05:15:25.786Z,60258.59
2023-02-08T05:17:55.709Z,60262.97
2023-02-08T05:20:24.155Z,60264.03
2023-02-08T05:22:52.702Z,60267.34
2023-02-08T05:25:21.262Z,60263.63
2023-02-08T05:27:49.817Z,60267.22
2023-02-08T05:30:18.710Z,60265.09
2023-02-08T05:32:47.212Z,60262.06
2023-02-08T05:35:17.337Z,60261.50
2023-02-08T05:37:45.885Z,60255.69
2023-02-08T05:40:14.406Z,60253.03
2023-02-08T05:42:43.225Z,60255.56
2023-02-08T05:45:12.048Z,60252.38
2023-02-08T05:47:40.498Z,60250.91
2023-02-08T05:50:09.661Z,60249.72
2023-02-08T05:52:39.557Z,60254.50
2023-02-08T05:55:09.325Z,60245.59
2023-02-08T05:57:46.138Z,60241.63
2023-02-08T06:00:24.403Z,60253.56
2023-02-08T06:02:52.954Z,60258.75
2023-02-08T06:05:21.580Z,60239.25
2023-02-08T06:07:51.495Z,60260.84
2023-02-08T06:10:20.288Z,60250.53
2023-02-08T06:12:48.877Z,60249.44
2023-02-08T06:15:17.519Z,60246.13
2023-02-08T06:17:46.027Z,60255.56
2023-02-08T06:20:14.623Z,60254.09
2023-02-08T06:22:43.075Z,60261.13
2023-02-08T06:25:12.984Z,60260.97
2023-02-08T06:27:41.632Z,60260.19
2023-02-08T06:30:11.906Z,60262.44
2023-02-08T06:32:40.354Z,60265.50
2023-02-08T06:35:09.749Z,60261.91
2023-02-08T06:37:38.386Z,60260.84
2023-02-08T06:40:08.120Z,60258.22
2023-02-08T06:42:38.099Z,60259.41
2023-02-08T06:45:10.977Z,60249.88
2023-02-08T06:47:40.745Z,60244.56
2023-02-08T06:50:10.319Z,60247.47
2023-02-08T06:52:39.902Z,60247.47
2023-02-08T06:55:09.006Z,60245.47
2023-02-08T06:57:38.878Z,60241.09
2023-02-08T07:00:08.947Z,60258.09
2023-02-08T07:02:37.368Z,60252.25
2023-02-08T07:05:05.940Z,60249.59
2023-02-08T07:07:34.429Z,60248.78
2023-02-08T07:10:03.027Z,60248.13
2023-02-08T07:12:34.668Z,60256.63
2023-02-08T07:15:06.154Z,60250.91
2023-02-08T07:17:34.601Z,60258.34
2023-02-08T07:20:03.279Z,60259.78
2023-02-08T07:22:34.590Z,60252.38
2023-02-08T07:25:03.350Z,60263.50
2023-02-08T07:27:33.105Z,60268.94
2023-02-08T07:30:03.066Z,60282.75
2023-02-08T07:32:34.361Z,60287.78
2023-02-08T07:35:03.388Z,60283.94
2023-02-08T07:37:33.033Z,60287.63
2023-02-08T07:40:01.586Z,60292.66
2023-02-08T07:42:29.941Z,60292.16
2023-02-08T07:45:19.806Z,60293.75
2023-02-08T07:47:50.792Z,60286.97
2023-02-08T07:50:21.127Z,60293.75
2023-02-08T07:52:49.556Z,60275.31
2023-02-08T07:55:18.666Z,60290.97
2023-02-08T07:57:49.094Z,60284.84
2023-02-08T08:00:20.305Z,60298.78
2023-02-08T08:03:05.733Z,60299.03
2023-02-08T08:05:34.892Z,60313.78
2023-02-08T08:08:07.119Z,60295.19
2023-02-08T08:10:51.576Z,60310.31
2023-02-08T08:13:21.007Z,60294.94
2023-02-08T08:15:51.061Z,60320.41
2023-02-08T08:18:19.580Z,60331.28
2023-02-08T08:20:48.279Z,60331.00
2023-02-08T08:23:16.904Z,60341.88
2023-02-08T08:25:55.347Z,60325.16
2023-02-08T08:28:24.508Z,60330.88
2023-02-08T08:30:54.632Z,60341.63
2023-02-08T08:33:23.333Z,60355.69
2023-02-08T08:35:51.727Z,60360.84
2023-02-08T08:38:20.423Z,60370.41
2023-02-08T08:40:48.898Z,60389.94
2023-02-08T08:43:17.440Z,60398.16
2023-02-08T08:45:46.814Z,60409.06
2023-02-08T08:48:17.458Z,60404.78
2023-02-08T08:50:45.954Z,60412.63
2023-02-08T08:53:14.612Z,60425.50
2023-02-08T08:55:44.354Z,60429.63
2023-02-08T08:58:14.413Z,60431.09
2023-02-08T09:00:43.222Z,60430.28
2023-02-08T09:03:11.932Z,60438.13
2023-02-08T09:05:41.765Z,60456.31
2023-02-08T09:08:10.204Z,60459.38
2023-02-08T09:10:38.741Z,60471.47
2023-02-08T09:13:07.149Z,60477.31
2023-02-08T09:15:35.639Z,60478.91
2023-02-08T09:18:04.230Z,60485.94
2023-02-08T09:20:32.779Z,60490.88
2023-02-08T09:23:02.813Z,60495.94
2023-02-08T09:25:33.372Z,60500.84
2023-02-08T09:28:02.081Z,60519.44
2023-02-08T09:30:30.558Z,60550.81
2023-02-08T09:32:59.064Z,60562.00
2023-02-08T09:35:27.550Z,60569.84
2023-02-08T09:37:58.264Z,60557.72
2023-02-08T09:40:37.246Z,60554.41
2023-02-08T09:43:12.140Z,60585.25
2023-02-08T09:45:59.796Z,60658.72
2023-02-08T09:48:33.948Z,60728.72
2023-02-08T09:51:15.101Z,60797.25
2023-02-08T09:53:50.285Z,60855.09
2023-02-08T09:56:28.348Z,60921.53
2023-02-08T09:58:58.448Z,60935.44
2023-02-08T10:01:30.232Z,60957.84
2023-02-08T10:04:03.138Z,60954.38
2023-02-08T10:06:32.597Z,60962.66
2023-02-08T10:09:06.140Z,61014.59
2023-02-08T10:11:51.369Z,60987.88
2023-02-08T10:14:35.842Z,60953.72
2023-02-08T10:17:16.173Z,60923.81
2023-02-08T10:19:59.768Z,60985.09
2023-02-08T10:22:40.985Z,60985.09
2023-02-08T10:25:29.480Z,60959.03
2023-02-08T10:28:21.701Z,60903.53
2023-02-08T10:30:58.716Z,60948.78
2023-02-08T10:33:34.003Z,60990.44
2023-02-08T10:36:02.682Z,61003.78
2023-02-08T10:38:45.746Z,60956.47
2023-02-08T10:41:21.578Z,61019.41
2023-02-08T10:43:56.092Z,60987.88
2023-02-08T10:46:29.833Z,61027.84
2023-02-08T10:49:09.500Z,60964.91
2023-02-08T10:51:38.440Z,60996.84
2023-02-08T10:54:07.359Z,61027.84
2023-02-08T10:56:47.855Z,61024.19
2023-02-08T10:59:22.088Z,61054.16
2023-02-08T11:01:52.072Z,61048.69
2023-02-08T11:04:21.055Z,60984.16
2023-02-08T11:06:51.431Z,60993.88
2023-02-08T11:09:27.051Z,61008.72
2023-02-08T11:11:56.731Z,61035.72
2023-02-08T11:14:45.392Z,60998.56
2023-02-08T11:17:28.541Z,61058.84
2023-02-08T11:19:58.032Z,61069.28
2023-02-08T11:22:31.109Z,61062.47
2023-02-08T11:25:03.402Z,61051.38
2023-02-08T11:27:36.293Z,61087.31
2023-02-08T11:30:25.734Z,61073.41
2023-02-08T11:33:19.397Z,61071.25
2023-02-08T11:36:10.409Z,61135.03
2023-02-08T11:38:44.164Z,61121.94
2023-02-08T11:41:19.133Z,61088.38
2023-02-08T11:44:01.743Z,61073.28
2023-02-08T11:46:35.144Z,61116.84
2023-02-08T11:49:04.663Z,61152.56
2023-02-08T11:51:36.020Z,61111.91
2023-02-08T11:54:05.846Z,61141.72
2023-02-08T11:56:36.014Z,61141.19
2023-02-08T11:59:19.001Z,61093.72
2023-02-08T12:01:48.989Z,61138.66
2023-02-08T12:04:19.188Z,61139.06
2023-02-08T12:07:15.373Z,61101.19
2023-02-08T12:10:13.551Z,61156.28
2023-02-08T12:13:09.551Z,61183.88
2023-02-08T12:15:58.661Z,61144.00
2023-02-08T12:18:54.018Z,61141.31
2023-02-08T12:21:26.808Z,61104.84
2023-02-08T12:23:58.706Z,61099.06
2023-02-08T12:26:54.210Z,61096.94
2023-02-08T12:29:47.396Z,61067.00
2023-02-08T12:32:51.696Z,61131.16
2023-02-08T12:35:57.381Z,61134.78
2023-02-08T12:39:22.747Z,61103.75
2023-02-08T12:42:26.076Z,61098.41
2023-02-08T12:45:17.626Z,61097.63
2023-02-08T12:48:04.679Z,61089.84
2023-02-08T12:50:42.323Z,61087.97
2023-02-08T12:53:21.139Z,61080.34
2023-02-08T12:55:51.779Z,61086.13
2023-02-08T12:58:29.660Z,61116.72
2023-02-08T13:01:06.863Z,61125.28
2023-02-08T13:03:49.008Z,61138.00
2023-02-08T13:06:24.196Z,61137.47
2023-02-08T13:08:57.852Z,61150.53
2023-02-08T13:11:34.481Z,61080.78
2023-02-08T13:14:09.966Z,61056.28
2023-02-08T13:16:46.122Z,61049.22
2023-02-08T13:19:41.998Z,61027.44
2023-02-08T13:22:19.522Z,61024.19
2023-02-08T13:25:06.272Z,61042.78
2023-02-08T13:27:39.039Z,61028.50
2023-02-08T13:30:09.515Z,61047.06
2023-02-08T13:32:44.272Z,61066.75
2023-02-08T13:35:19.073Z,61078.75
2023-02-08T13:37:56.781Z,61074.34
2023-02-08T13:40:29.539Z,61055.34
2023-02-08T13:43:04.828Z,61050.84
2023-02-08T13:45:37.630Z,61034.50
2023-02-08T13:48:08.521Z,61025.69
2023-02-08T13:50:46.673Z,61018.22
2023-02-08T13:53:19.013Z,61038.50
2023-02-08T13:55:58.824Z,61012.47
2023-02-08T13:58:37.621Z,61024.09
2023-02-08T14:01:20.692Z,61012.88
2023-02-08T14:04:18.594Z,61016.72
2023-02-08T14:06:51.518Z,60994.94
2023-02-08T14:09:29.820Z,61018.22
2023-02-08T14:12:03.852Z,61027.44
2023-02-08T14:14:37.749Z,61051.50
2023-02-08T14:17:29.850Z,61049.75
2023-02-08T14:20:01.835Z,61018.31
2023-02-08T14:22:40.428Z,61017.13
2023-02-08T14:25:22.808Z,61031.69
2023-02-08T14:27:54.129Z,61020.47
2023-02-08T14:30:28.634Z,61032.53
2023-02-08T14:33:16.422Z,61012.88
2023-02-08T14:35:55.330Z,61012.88
2023-02-08T14:38:52.921Z,61016.06
2023-02-08T14:41:47.545Z,61000.72
2023-02-08T14:45:01.323Z,60997.91
2023-02-08T14:48:17.906Z,60994.28
2023-02-08T14:51:04.322Z,61012.88
2023-02-08T14:53:41.199Z,61012.34
2023-02-08T14:56:20.146Z,61000.03
2023-02-08T14:58:52.561Z,60994.72
2023-02-08T15:01:44.045Z,60989.50
2023-02-08T15:04:13.978Z,60988.53
2023-02-08T15:07:00.197Z,60993.75
2023-02-08T15:09:31.907Z,60997.38
2023-02-08T15:12:04.110Z,61008.59
2023-02-08T15:14:37.642Z,61011.69
2023-02-08T15:17:07.344Z,60997.50
2023-02-08T15:19:39.024Z,60998.97
2023-02-08T15:22:31.484Z,60982.53
2023-02-08T15:25:02.484Z,60975.06
2023-02-08T15:27:34.232Z,60982.31
2023-02-08T15:30:04.232Z,60967.31
2023-02-08T15:32:32.683Z,60979.09
2023-02-08T15:35:04.704Z,60974.41
2023-02-08T15:37:35.479Z,60961.06
2023-02-08T15:40:04.735Z,60960.41
2023-02-08T15:42:36.004Z,60950.09
2023-02-08T15:45:24.272Z,60949.19
2023-02-08T15:47:54.590Z,60950.91
2023-02-08T15:50:24.568Z,60938.75
2023-02-08T15:53:00.139Z,60949.31
2023-02-08T15:55:35.051Z,60941.97
2023-02-08T15:58:07.983Z,60939.56
2023-02-08T16:00:39.468Z,60934.22
2023-02-08T16:03:18.374Z,60928.47
2023-02-08T16:05:51.722Z,60923.56
2023-02-08T16:08:24.408Z,60912.06
2023-02-08T16:10:56.489Z,60914.72
2023-02-08T16:13:28.960Z,60906.31
2023-02-08T16:16:16.320Z,60911.28
2023-02-08T16:18:46.484Z,60902.31
2023-02-08T16:24:24.305Z,60887.25
2023-02-08T16:27:06.468Z,60882.16
2023-02-08T16:29:39.137Z,60883.25
2023-02-08T16:32:21.162Z,60886.59
2023-02-08T16:34:51.047Z,60870.31
2023-02-08T16:37:28.260Z,60865.50
2023-02-08T16:39:58.459Z,60858.03
2023-02-08T16:42:31.344Z,60842.81
2023-02-08T16:45:19.812Z,60843.75
2023-02-08T16:47:53.382Z,60847.38
2023-02-08T16:50:24.736Z,60850.56
2023-02-08T16:52:57.715Z,60839.91
2023-02-08T16:55:29.304Z,60845.22
2023-02-08T16:57:59.998Z,60840.97
2023-02-08T17:00:31.377Z,60835.63
2023-02-08T17:03:16.457Z,60833.50
2023-02-08T17:08:55.171Z,60815.38
2023-02-08T17:11:24.595Z,60814.97
2023-02-08T17:13:53.273Z,60816.44
2023-02-08T17:16:24.262Z,60811.78
2023-02-08T17:19:05.901Z,60811.09
2023-02-08T17:21:34.585Z,60803.25
2023-02-08T17:24:03.259Z,60801.75
2023-02-08T17:26:38.545Z,60805.66
2023-02-08T17:29:07.808Z,60787.22
2023-02-08T17:31:36.821Z,60783.50
2023-02-08T17:34:07.189Z,60779.13
2023-02-08T17:36:37.944Z,60781.25
2023-02-08T17:39:07.364Z,60778.69
2023-02-08T17:41:36.013Z,60769.75
2023-02-08T17:44:04.634Z,60763.13
2023-02-08T17:46:33.186Z,60766.31
2023-02-08T17:49:03.607Z,60764.19
2023-02-08T17:51:34.380Z,60761.00
2023-02-08T17:54:05.836Z,60742.47
2023-02-08T17:56:35.602Z,60740.97
2023-02-08T17:59:05.559Z,60745.00
2023-02-08T18:01:35.094Z,60741.28
2023-02-08T18:04:03.794Z,60742.88
2023-02-08T18:06:33.629Z,60742.06
2023-02-08T18:09:02.262Z,60738.59
2023-02-08T18:11:30.773Z,60737.78
2023-02-08T18:13:59.327Z,60732.88
2023-02-08T18:16:29.104Z,60736.47
2023-02-08T18:18:59.265Z,60729.03
2023-02-08T18:21:30.185Z,60727.53
2023-02-08T18:24:02.908Z,60722.22
2023-02-08T18:26:33.639Z,60722.63
2023-02-08T18:29:02.540Z,60701.81
2023-02-08T18:31:31.598Z,60718.34
2023-02-08T18:34:00.108Z,60714.75
2023-02-08T18:36:28.580Z,60711.97
2023-02-08T18:38:59.636Z,60711.31
2023-02-08T18:41:30.347Z,60708.25
2023-02-08T18:44:00.283Z,60698.25
2023-02-08T18:46:30.442Z,60704.09
2023-02-08T18:48:59.288Z,60690.25
2023-02-08T18:51:30.294Z,60684.53
2023-02-08T18:54:00.594Z,60690.00
2023-02-08T18:56:29.424Z,60688.00
2023-02-08T18:59:00.830Z,60678.28
2023-02-08T19:01:29.291Z,60668.03
2023-02-08T19:03:58.696Z,60674.69
2023-02-08T19:06:31.445Z,60662.16
2023-02-08T19:09:04.528Z,60668.03
2023-02-08T19:11:36.444Z,60656.59
2023-02-08T19:14:08.685Z,60646.19
2023-02-08T19:16:38.732Z,60649.38
2023-02-08T19:19:08.491Z,60651.25
2023-02-08T19:21:37.163Z,60651.78
2023-02-08T19:24:07.816Z,60645.00
2023-02-08T19:26:40.643Z,60645.94
2023-02-08T19:29:13.450Z,60631.16
2023-02-08T19:31:42.885Z,60630.22
2023-02-08T19:34:12.681Z,60641.69
2023-02-08T19:36:44.533Z,60635.94
2023-02-08T19:39:17.564Z,60634.47
2023-02-08T19:41:46.812Z,60630.22
2023-02-08T19:44:19.129Z,60633.41
2023-02-08T19:46:49.675Z,60624.63
2023-02-08T19:49:18.266Z,60620.09
2023-02-08T19:51:47.219Z,60625.72
2023-02-08T19:54:19.662Z,60623.56
2023-02-08T19:56:50.306Z,60622.53
2023-02-08T19:59:21.965Z,60626.78
2023-02-08T20:01:50.905Z,60615.59
2023-02-08T20:04:19.538Z,60621.03
2023-02-08T20:06:49.102Z,60617.72
2023-02-08T20:09:19.282Z,60611.06
2023-02-08T20:11:57.918Z,60609.88
2023-02-08T20:14:29.085Z,60611.88
2023-02-08T20:16:57.788Z,60607.06
2023-02-08T20:19:26.888Z,60614.81
2023-02-08T20:21:55.421Z,60606.53
2023-02-08T20:24:25.500Z,60586.72
2023-02-08T20:26:54.281Z,60588.72
2023-02-08T20:29:22.845Z,60597.50
2023-02-08T20:31:55.723Z,60598.03
2023-02-08T20:34:24.473Z,60594.31
2023-02-08T20:37:06.466Z,60589.13
2023-02-08T20:39:38.639Z,60580.59
2023-02-08T20:42:07.646Z,60574.09
2023-02-08T20:44:36.156Z,60570.63
2023-02-08T20:47:04.584Z,60569.97
2023-02-08T20:49:33.419Z,60577.81
2023-02-08T20:52:01.857Z,60564.66
2023-02-08T20:54:30.308Z,60557.72
2023-02-08T20:57:00.155Z,60558.13
2023-02-08T20:59:28.862Z,60561.47
2023-02-08T21:01:57.368Z,60552.28
2023-02-08T21:04:27.150Z,60548.03
2023-02-08T21:06:55.657Z,60538.59
2023-02-08T21:09:24.596Z,60529.16
2023-02-08T21:11:53.408Z,60528.47
2023-02-08T21:14:24.128Z,60525.28
2023-02-08T21:16:56.296Z,60521.56
2023-02-08T21:19:25.212Z,60523.16
2023-02-08T21:21:54.731Z,60521.69
2023-02-08T21:24:24.320Z,60529.94
2023-02-08T21:26:53.177Z,60523.81
2023-02-08T21:29:23.940Z,60533.53
2023-02-08T21:31:54.428Z,60526.09
2023-02-08T21:34:23.177Z,60520.63
2023-02-08T21:36:51.886Z,60521.56
2023-02-08T21:39:27.745Z,60517.72
2023-02-08T21:42:03.807Z,60519.31
2023-02-08T21:44:35.201Z,60524.50
2023-02-08T21:47:04.033Z,60513.59
2023-02-08T21:49:50.341Z,60509.75
2023-02-08T21:52:36.334Z,60500.44
2023-02-08T21:55:04.944Z,60501.50
2023-02-08T21:57:39.798Z,60501.88
2023-02-08T22:00:11.945Z,60505.75
2023-02-08T22:02:43.868Z,60506.94
2023-02-08T22:05:30.236Z,60493.41
2023-02-08T22:08:00.533Z,60494.06
2023-02-08T22:10:32.138Z,60498.03
2023-02-08T22:13:01.105Z,60494.59
2023-02-08T22:15:31.799Z,60480.09
2023-02-08T22:18:02.953Z,60479.56
2023-02-08T22:20:32.370Z,60467.88
2023-02-08T22:23:01.937Z,60471.72
2023-02-08T22:25:30.543Z,60471.47
2023-02-08T22:27:59.666Z,60467.88
2023-02-08T22:30:28.218Z,60466.69
2023-02-08T22:32:58.186Z,60463.22
2023-02-08T22:35:27.437Z,60459.38
2023-02-08T22:37:56.066Z,60459.38
2023-02-08T22:40:24.452Z,60465.88
2023-02-08T22:42:52.984Z,60470.41
2023-02-08T22:45:21.581Z,60466.81
2023-02-08T22:47:50.106Z,60461.38
2023-02-08T22:50:20.114Z,60446.22
2023-02-08T22:52:48.620Z,60443.56
2023-02-08T22:55:20.232Z,60452.34
2023-02-08T22:57:48.878Z,60447.69
2023-02-08T23:00:18.018Z,60449.41
2023-02-08T23:02:46.685Z,60451.53
2023-02-08T23:05:15.284Z,60454.34
2023-02-08T23:07:45.199Z,60451.94
2023-02-08T23:10:15.255Z,60448.34
2023-02-08T23:12:44.061Z,60441.31
2023-02-08T23:15:12.654Z,60440.13
2023-02-08T23:17:41.237Z,60431.34
2023-02-08T23:20:11.354Z,60434.53
2023-02-08T23:22:39.986Z,60428.56
2023-02-08T23:25:10.495Z,60435.34
2023-02-08T23:27:39.259Z,60429.63
2023-02-08T23:30:09.733Z,60417.94
2023-02-08T23:32:38.655Z,60407.97
2023-02-08T23:35:08.198Z,60411.56
2023-02-08T23:37:36.834Z,60417.56
2023-02-08T23:40:06.578Z,60420.75
2023-02-08T23:42:36.492Z,60422.72
2023-02-08T23:45:07.253Z,60417.41
2023-02-08T23:47:36.007Z,60414.38
2023-02-08T23:50:04.456Z,60418.59
2023-02-08T23:52:32.862Z,60410.50
2023-02-08T23:55:01.268Z,60409.44
2023-02-08T23:57:33.898Z,60411.44
